createdAt,value
2022-09-23T00:01:18.933Z,68.68
2022-09-23T00:03:46.709Z,68.65
2022-09-23T00:06:21.058Z,68.96
2022-09-23T00:08:51.762Z,68.88
2022-09-23T00:11:22.843Z,69.11
2022-09-23T00:13:54.341Z,69.15
2022-09-23T00:16:29.301Z,68.80
2022-09-23T00:18:56.339Z,68.23
2022-09-23T00:21:23.818Z,68.15
2022-09-23T00:23:51.029Z,68.74
2022-09-23T00:26:21.374Z,69.30
2022-09-23T00:28:50.222Z,69.59
2022-09-23T00:31:23.887Z,69.35
2022-09-23T00:34:01.579Z,69.25
2022-09-23T00:36:30.333Z,68.69
2022-09-23T00:38:57.470Z,68.60
2022-09-23T00:41:25.461Z,68.88
2022-09-23T00:43:56.873Z,69.05
2022-09-23T00:46:39.923Z,68.35
2022-09-23T00:49:14.095Z,68.60
2022-09-23T00:51:55.832Z,68.45
2022-09-23T00:54:27.514Z,69.11
2022-09-23T00:56:57.635Z,69.18
2022-09-23T00:59:26.166Z,68.43
2022-09-23T01:01:57.506Z,69.29
2022-09-23T01:04:28.995Z,69.22
2022-09-23T01:06:55.766Z,69.75
2022-09-23T01:09:24.334Z,69.67
2022-09-23T01:12:07.367Z,69.93
2022-09-23T01:15:08.371Z,69.63
2022-09-23T01:18:06.460Z,70.26
2022-09-23T01:20:59.290Z,70.21
2022-09-23T01:24:07.929Z,70.12
2022-09-23T01:26:53.519Z,70.03
2022-09-23T01:30:04.631Z,70.84
2022-09-23T01:33:08.187Z,71.22
2022-09-23T01:36:08.445Z,71.45
2022-09-23T01:38:59.142Z,71.70
2022-09-23T01:41:32.325Z,71.82
2022-09-23T01:44:53.275Z,72.43
2022-09-23T01:47:56.103Z,72.49
2022-09-23T01:50:50.624Z,73.14
2022-09-23T01:53:46.019Z,73.26
2022-09-23T01:56:26.226Z,72.93
2022-09-23T01:59:05.446Z,73.43
2022-09-23T02:01:42.628Z,73.35
2022-09-23T02:04:22.491Z,73.76
2022-09-23T02:07:05.513Z,73.92
2022-09-23T02:09:42.299Z,73.90
2022-09-23T02:12:17.299Z,74.16
2022-09-23T02:14:52.724Z,72.98
2022-09-23T02:17:39.645Z,72.62
2022-09-23T02:20:07.916Z,73.36
2022-09-23T02:22:42.656Z,73.87
2022-09-23T02:25:12.477Z,73.27
2022-09-23T02:28:06.978Z,74.24
2022-09-23T02:30:59.366Z,74.26
2022-09-23T02:33:46.293Z,73.69
2022-09-23T02:36:29.171Z,73.83
2022-09-23T02:39:03.784Z,73.84
2022-09-23T02:41:34.178Z,73.46
2022-09-23T02:44:09.164Z,72.79
2022-09-23T02:46:37.899Z,72.95
2022-09-23T02:49:15.154Z,73.06
2022-09-23T02:51:42.841Z,74.04
2022-09-23T02:54:17.265Z,74.17
2022-09-23T02:56:44.508Z,74.57
2022-09-23T02:59:13.112Z,74.56
2022-09-23T03:01:56.596Z,74.84
2022-09-23T03:05:00.145Z,75.11
2022-09-23T03:07:58.531Z,75.17
2022-09-23T03:10:54.761Z,75.26
2022-09-23T03:13:51.146Z,74.47
2022-09-23T03:16:50.363Z,75.06
2022-09-23T03:19:37.878Z,74.90
2022-09-23T03:22:22.865Z,75.07
2022-09-23T03:24:54.144Z,74.90
2022-09-23T03:27:29.102Z,74.75
2022-09-23T03:29:57.389Z,74.85
2022-09-23T03:32:29.410Z,75.01
2022-09-23T03:35:03.212Z,74.87
2022-09-23T03:37:40.047Z,74.86
2022-09-23T03:40:22.922Z,74.53
2022-09-23T03:42:51.308Z,73.84
2022-09-23T03:45:26.644Z,73.94
2022-09-23T03:47:53.673Z,73.61
2022-09-23T03:50:21.341Z,74.26
2022-09-23T03:52:49.627Z,74.44
2022-09-23T03:55:19.282Z,73.40
2022-09-23T03:57:46.682Z,73.55
2022-09-23T04:00:15.076Z,73.57
2022-09-23T04:02:42.872Z,72.80
2022-09-23T04:05:11.803Z,73.07
2022-09-23T04:07:39.295Z,72.79
2022-09-23T04:10:07.258Z,73.16
2022-09-23T04:12:34.281Z,73.70
2022-09-23T04:15:01.059Z,73.17
2022-09-23T04:17:28.118Z,73.62
2022-09-23T04:19:55.071Z,73.29
2022-09-23T04:22:22.193Z,74.00
2022-09-23T04:24:49.299Z,74.13
2022-09-23T04:27:16.146Z,74.02
2022-09-23T04:29:43.004Z,74.26
2022-09-23T04:32:10.252Z,73.68
2022-09-23T04:34:37.121Z,73.41
2022-09-23T04:37:04.281Z,73.90
2022-09-23T04:39:31.434Z,74.12
2022-09-23T04:41:58.302Z,73.50
2022-09-23T04:44:26.802Z,73.05
2022-09-23T04:46:53.937Z,73.13
2022-09-23T04:49:20.910Z,73.07
2022-09-23T04:51:47.903Z,74.11
2022-09-23T04:54:15.160Z,73.95
2022-09-23T04:56:42.683Z,74.06
2022-09-23T04:59:09.662Z,73.76
2022-09-23T05:01:37.966Z,74.14
2022-09-23T05:04:10.143Z,74.25
2022-09-23T05:06:37.262Z,74.55
2022-09-23T05:09:08.049Z,73.64
2022-09-23T05:11:35.294Z,73.77
2022-09-23T05:14:03.200Z,73.22
2022-09-23T05:16:30.251Z,73.43
2022-09-23T05:18:58.092Z,73.41
2022-09-23T05:21:28.923Z,73.49
2022-09-23T05:24:00.504Z,72.88
2022-09-23T05:26:31.217Z,72.98
2022-09-23T05:28:59.270Z,72.91
2022-09-23T05:31:30.631Z,73.19
2022-09-23T05:34:04.769Z,73.60
2022-09-23T05:36:38.428Z,73.56
2022-09-23T05:39:08.501Z,73.44
2022-09-23T05:41:36.621Z,73.76
2022-09-23T05:44:04.219Z,73.02
2022-09-23T05:46:32.057Z,73.04
2022-09-23T05:49:02.886Z,73.74
2022-09-23T05:51:38.517Z,74.59
2022-09-23T05:54:05.656Z,74.36
2022-09-23T05:56:34.408Z,74.39
2022-09-23T05:59:02.569Z,74.28
2022-09-23T06:01:34.232Z,73.97
2022-09-23T06:04:05.620Z,73.58
2022-09-23T06:06:39.454Z,74.62
2022-09-23T06:09:11.279Z,73.84
2022-09-23T06:11:38.300Z,73.07
2022-09-23T06:14:06.017Z,73.07
2022-09-23T06:16:35.749Z,73.15
2022-09-23T06:19:07.954Z,73.92
2022-09-23T06:21:38.858Z,73.31
2022-09-23T06:24:09.346Z,73.05
2022-09-23T06:26:38.330Z,72.75
2022-09-23T06:29:14.517Z,73.01
2022-09-23T06:31:42.047Z,73.39
2022-09-23T06:34:14.614Z,73.33
2022-09-23T06:36:45.948Z,74.04
2022-09-23T06:39:16.843Z,73.71
2022-09-23T06:41:45.334Z,74.01
2022-09-23T06:44:14.553Z,74.57
2022-09-23T06:46:43.032Z,74.11
2022-09-23T06:49:10.677Z,74.50
2022-09-23T06:51:37.791Z,74.47
2022-09-23T06:54:05.054Z,74.40
2022-09-23T06:56:37.767Z,73.69
2022-09-23T06:59:07.726Z,73.67
2022-09-23T07:01:34.905Z,73.90
2022-09-23T07:04:02.171Z,74.01
2022-09-23T07:06:28.985Z,73.71
2022-09-23T07:08:56.024Z,73.60
2022-09-23T07:11:23.109Z,73.19
2022-09-23T07:13:50.707Z,73.03
2022-09-23T07:16:17.865Z,72.72
2022-09-23T07:18:45.705Z,73.68
2022-09-23T07:21:18.639Z,73.44
2022-09-23T07:23:50.179Z,73.23
2022-09-23T07:26:19.317Z,72.92
2022-09-23T07:28:47.118Z,72.59
2022-09-23T07:31:37.945Z,72.14
2022-09-23T07:34:10.318Z,71.93
2022-09-23T07:36:41.275Z,71.58
2022-09-23T07:39:12.222Z,71.71
2022-09-23T07:41:44.719Z,71.57
2022-09-23T07:44:12.513Z,71.43
2022-09-23T07:46:40.158Z,71.42
2022-09-23T07:49:08.069Z,71.41
2022-09-23T07:51:38.787Z,71.13
2022-09-23T07:54:11.414Z,70.97
2022-09-23T07:56:39.391Z,71.75
2022-09-23T07:59:10.963Z,71.66
2022-09-23T08:01:44.272Z,70.89
2022-09-23T08:04:17.877Z,71.48
2022-09-23T08:06:52.352Z,71.07
2022-09-23T08:09:23.761Z,70.73
2022-09-23T08:11:51.422Z,70.93
2022-09-23T08:14:19.211Z,70.81
2022-09-23T08:16:47.673Z,71.03
2022-09-23T08:19:16.016Z,70.91
2022-09-23T08:21:46.689Z,70.99
2022-09-23T08:24:21.958Z,70.54
2022-09-23T08:26:49.423Z,70.53
2022-09-23T08:29:19.236Z,70.75
2022-09-23T08:31:47.219Z,70.98
2022-09-23T08:34:14.407Z,70.78
2022-09-23T08:36:41.287Z,70.67
2022-09-23T08:39:10.010Z,69.82
2022-09-23T08:42:05.284Z,69.65
2022-09-23T08:44:47.075Z,69.10
2022-09-23T08:47:32.338Z,69.14
2022-09-23T08:50:08.888Z,69.22
2022-09-23T08:52:57.261Z,68.31
2022-09-23T08:55:40.365Z,68.14
2022-09-23T08:58:25.409Z,68.57
2022-09-23T09:00:59.638Z,68.05
2022-09-23T09:03:55.487Z,68.14
2022-09-23T09:06:53.048Z,67.75
2022-09-23T09:09:53.133Z,67.68
2022-09-23T09:12:38.022Z,67.23
2022-09-23T09:15:19.507Z,66.71
2022-09-23T09:18:02.415Z,66.71
2022-09-23T09:20:59.616Z,66.98
2022-09-23T09:23:49.707Z,66.04
2022-09-23T09:26:26.683Z,65.34
2022-09-23T09:29:36.381Z,64.75
2022-09-23T09:32:28.477Z,64.15
2022-09-23T09:35:05.596Z,63.99
2022-09-23T09:37:45.922Z,62.67
2022-09-23T09:40:16.375Z,62.81
2022-09-23T09:42:49.633Z,62.61
2022-09-23T09:45:35.038Z,62.92
2022-09-23T09:48:17.731Z,62.81
2022-09-23T09:50:51.976Z,63.00
2022-09-23T09:53:19.264Z,61.04
2022-09-23T09:56:07.843Z,60.68
2022-09-23T09:59:02.005Z,60.28
2022-09-23T10:01:35.228Z,59.31
2022-09-23T10:04:19.398Z,59.47
2022-09-23T10:07:15.684Z,58.13
2022-09-23T10:09:51.248Z,58.52
2022-09-23T10:12:23.911Z,58.65
2022-09-23T10:14:56.885Z,56.99
2022-09-23T10:17:33.443Z,56.66
2022-09-23T10:20:15.340Z,56.94
2022-09-23T10:22:43.301Z,55.38
2022-09-23T10:25:26.673Z,56.48
2022-09-23T10:27:53.983Z,56.54
2022-09-23T10:30:27.794Z,56.23
2022-09-23T10:32:57.070Z,57.31
2022-09-23T10:35:28.064Z,56.66
2022-09-23T10:37:57.814Z,56.49
2022-09-23T10:41:01.639Z,57.28
2022-09-23T10:44:36.155Z,57.15
2022-09-23T10:47:25.323Z,57.13
2022-09-23T10:50:11.242Z,56.74
2022-09-23T10:53:09.959Z,56.36
2022-09-23T10:56:15.162Z,56.64
2022-09-23T10:59:36.233Z,56.69
2022-09-23T11:02:25.309Z,56.94
2022-09-23T11:05:39.277Z,56.57
2022-09-23T11:08:44.937Z,56.06
2022-09-23T11:11:31.047Z,55.48
2022-09-23T11:14:50.348Z,56.16
2022-09-23T11:18:06.563Z,55.86
2022-09-23T11:21:05.068Z,53.96
2022-09-23T11:24:02.695Z,54.57
2022-09-23T11:27:10.299Z,54.43
2022-09-23T11:30:18.031Z,53.66
2022-09-23T11:33:19.629Z,54.16
2022-09-23T11:35:56.797Z,52.50
2022-09-23T11:38:37.258Z,52.39
2022-09-23T11:41:32.199Z,52.41
2022-09-23T11:44:13.729Z,52.60
2022-09-23T11:46:55.945Z,53.04
2022-09-23T11:49:35.014Z,50.87
2022-09-23T11:52:19.613Z,51.11
2022-09-23T11:55:32.654Z,51.54
2022-09-23T11:58:25.800Z,51.75
2022-09-23T12:01:16.865Z,52.05
2022-09-23T12:03:55.564Z,52.88
2022-09-23T12:06:32.469Z,52.94
2022-09-23T12:09:41.043Z,52.05
2022-09-23T12:12:31.849Z,51.29
2022-09-23T12:15:19.571Z,52.79
2022-09-23T12:18:35.908Z,51.60
2022-09-23T12:21:48.777Z,51.35
2022-09-23T12:24:47.586Z,51.31
2022-09-23T12:27:39.622Z,50.58
2022-09-23T12:30:18.117Z,50.68
2022-09-23T12:32:45.916Z,50.36
2022-09-23T12:35:30.406Z,51.09
2022-09-23T12:38:01.329Z,51.63
2022-09-23T12:40:44.797Z,51.02
2022-09-23T12:43:29.483Z,51.42
2022-09-23T12:46:27.756Z,52.59
2022-09-23T12:48:57.373Z,53.39
2022-09-23T12:51:28.066Z,52.01
2022-09-23T12:54:04.729Z,51.86
2022-09-23T12:56:37.769Z,52.07
2022-09-23T12:59:19.833Z,51.25
2022-09-23T13:01:47.358Z,51.89
2022-09-23T13:04:53.307Z,51.28
2022-09-23T13:07:30.916Z,51.17
2022-09-23T13:10:15.296Z,50.99
2022-09-23T13:12:46.154Z,50.97
2022-09-23T13:15:30.404Z,50.77
2022-09-23T13:18:20.866Z,51.59
2022-09-23T13:20:50.946Z,50.86
2022-09-23T13:23:25.876Z,51.30
2022-09-23T13:26:00.391Z,52.05
2022-09-23T13:28:53.618Z,50.88
2022-09-23T13:31:21.349Z,51.30
2022-09-23T13:34:07.644Z,51.69
2022-09-23T13:36:45.396Z,50.18
2022-09-23T13:39:29.418Z,45.16
2022-09-23T13:42:03.011Z,43.80
2022-09-23T13:44:31.107Z,45.37
2022-09-23T13:47:02.331Z,46.71
2022-09-23T13:49:38.447Z,45.37
2022-09-23T13:52:05.596Z,45.32
2022-09-23T13:54:50.675Z,42.20
2022-09-23T13:57:34.021Z,40.91
2022-09-23T14:00:11.684Z,40.22
2022-09-23T14:02:46.947Z,41.41
2022-09-23T14:05:27.260Z,42.39
2022-09-23T14:07:56.849Z,39.94
2022-09-23T14:10:27.962Z,40.50
2022-09-23T14:12:56.953Z,39.52
2022-09-23T14:15:26.942Z,39.60
2022-09-23T14:18:04.679Z,41.95
2022-09-23T14:20:31.816Z,39.20
2022-09-23T14:23:14.039Z,39.66
2022-09-23T14:25:44.797Z,40.56
2022-09-23T14:28:18.473Z,40.93
2022-09-23T14:30:48.171Z,40.01
2022-09-23T14:33:19.876Z,39.09
2022-09-23T14:35:53.566Z,39.64
2022-09-23T14:38:47.629Z,39.65
2022-09-23T14:41:26.531Z,39.62
2022-09-23T14:43:58.663Z,40.02
2022-09-23T14:46:33.375Z,39.46
2022-09-23T14:49:16.542Z,39.83
2022-09-23T14:51:54.862Z,40.16
2022-09-23T14:54:39.942Z,40.12
2022-09-23T14:57:29.211Z,40.50
2022-09-23T15:00:06.576Z,41.23
2022-09-23T15:02:42.264Z,39.93
2022-09-23T15:05:13.002Z,39.61
2022-09-23T15:07:40.371Z,38.45
2022-09-23T15:10:16.320Z,39.47
2022-09-23T15:12:46.325Z,39.21
2022-09-23T15:15:15.121Z,38.97
2022-09-23T15:17:43.294Z,38.57
2022-09-23T15:20:16.462Z,39.63
2022-09-23T15:22:56.164Z,38.46
2022-09-23T15:25:35.576Z,40.16
2022-09-23T15:28:08.396Z,39.88
2022-09-23T15:30:37.336Z,40.41
2022-09-23T15:33:05.086Z,40.08
2022-09-23T15:35:33.128Z,40.91
2022-09-23T15:38:02.228Z,40.62
2022-09-23T15:40:36.760Z,40.20
2022-09-23T15:43:26.553Z,40.62
2022-09-23T15:45:58.691Z,40.07
2022-09-23T15:48:42.790Z,39.73
2022-09-23T15:51:15.302Z,39.79
2022-09-23T15:53:42.948Z,39.64
2022-09-23T15:56:09.814Z,39.87
2022-09-23T15:58:36.837Z,39.94
2022-09-23T16:01:04.309Z,40.69
2022-09-23T16:03:31.454Z,39.98
2022-09-23T16:06:03.002Z,41.03
2022-09-23T16:08:33.022Z,42.32
2022-09-23T16:11:00.355Z,42.71
2022-09-23T16:13:27.455Z,43.38
2022-09-23T16:15:54.425Z,43.05
2022-09-23T16:18:21.308Z,42.95
2022-09-23T16:20:50.237Z,43.10
2022-09-23T16:23:39.810Z,42.69
2022-09-23T16:26:17.899Z,43.12
2022-09-23T16:28:47.796Z,43.77
2022-09-23T16:31:16.568Z,43.18
2022-09-23T16:33:46.107Z,43.85
2022-09-23T16:36:24.118Z,45.05
2022-09-23T16:38:51.389Z,45.71
2022-09-23T16:41:18.471Z,45.99
2022-09-23T16:43:45.578Z,46.53
2022-09-23T16:46:16.448Z,46.58
2022-09-23T16:48:51.374Z,46.99
2022-09-23T16:51:23.116Z,47.11
2022-09-23T16:53:51.563Z,47.53
2022-09-23T16:56:27.257Z,47.24
2022-09-23T16:58:56.008Z,47.83
2022-09-23T17:01:47.074Z,47.99
2022-09-23T17:04:18.361Z,48.22
2022-09-23T17:06:50.980Z,47.94
2022-09-23T17:09:29.230Z,48.41
2022-09-23T17:12:15.517Z,48.74
2022-09-23T17:14:43.782Z,48.96
2022-09-23T17:17:10.612Z,48.71
2022-09-23T17:19:41.341Z,48.51
2022-09-23T17:22:09.256Z,48.76
2022-09-23T17:24:36.180Z,48.95
2022-09-23T17:27:03.452Z,48.95
2022-09-23T17:29:30.781Z,48.85
2022-09-23T17:31:58.178Z,49.15
2022-09-23T17:34:25.268Z,49.19
2022-09-23T17:36:52.541Z,49.66
2022-09-23T17:39:20.180Z,49.64
2022-09-23T17:41:47.398Z,49.73
2022-09-23T17:44:17.707Z,49.54
2022-09-23T17:46:44.598Z,49.59
2022-09-23T17:49:11.441Z,49.81
2022-09-23T17:51:46.451Z,49.39
2022-09-23T17:54:15.738Z,49.85
2022-09-23T17:56:44.171Z,50.10
2022-09-23T17:59:13.117Z,50.12
2022-09-23T18:01:40.470Z,50.36
2022-09-23T18:04:08.056Z,50.47
2022-09-23T18:06:39.176Z,50.32
2022-09-23T18:09:08.936Z,50.45
2022-09-23T18:11:43.926Z,50.58
2022-09-23T18:14:18.972Z,50.55
2022-09-23T18:16:52.547Z,50.40
2022-09-23T18:19:23.302Z,50.71
2022-09-23T18:21:54.638Z,51.02
2022-09-23T18:24:32.813Z,50.35
2022-09-23T18:27:01.841Z,50.46
2022-09-23T18:29:31.701Z,50.53
2022-09-23T18:31:59.398Z,50.59
2022-09-23T18:34:31.485Z,50.84
2022-09-23T18:36:58.425Z,51.04
2022-09-23T18:39:25.736Z,51.14
2022-09-23T18:41:52.869Z,51.48
2022-09-23T18:44:20.084Z,51.60
2022-09-23T18:46:47.000Z,51.64
2022-09-23T18:49:32.640Z,51.73
2022-09-23T18:51:59.746Z,52.24
2022-09-23T18:54:29.257Z,51.95
2022-09-23T18:56:56.809Z,51.95
2022-09-23T18:59:28.011Z,52.27
2022-09-23T19:01:59.564Z,52.63
2022-09-23T19:04:27.631Z,52.61
2022-09-23T19:06:56.623Z,52.47
2022-09-23T19:09:24.595Z,52.64
2022-09-23T19:11:53.417Z,52.84
2022-09-23T19:14:20.768Z,52.88
2022-09-23T19:16:51.652Z,53.24
2022-09-23T19:19:18.644Z,52.70
2022-09-23T19:21:45.709Z,52.90
2022-09-23T19:24:15.986Z,52.99
2022-09-23T19:26:44.446Z,53.48
2022-09-23T19:29:19.435Z,53.40
2022-09-23T19:31:46.809Z,53.57
2022-09-23T19:34:24.811Z,53.84
2022-09-23T19:36:52.970Z,54.13
2022-09-23T19:39:27.651Z,54.11
2022-09-23T19:41:58.990Z,54.16
2022-09-23T19:44:27.236Z,55.05
2022-09-23T19:46:57.271Z,55.34
2022-09-23T19:49:26.147Z,55.22
2022-09-23T19:51:56.419Z,55.13
2022-09-23T19:54:27.088Z,55.12
2022-09-23T19:56:55.506Z,55.60
2022-09-23T19:59:22.785Z,56.11
2022-09-23T20:01:54.606Z,55.97
2022-09-23T20:04:22.056Z,56.02
2022-09-23T20:06:49.668Z,55.81
2022-09-23T20:09:16.656Z,56.58
2022-09-23T20:11:44.302Z,56.85
2022-09-23T20:14:11.999Z,57.03
2022-09-23T20:16:40.737Z,56.71
2022-09-23T20:19:09.895Z,56.75
2022-09-23T20:21:37.633Z,56.59
2022-09-23T20:24:06.487Z,57.12
2022-09-23T20:26:52.144Z,56.47
2022-09-23T20:29:19.407Z,56.42
2022-09-23T20:31:47.358Z,56.71
2022-09-23T20:34:14.434Z,56.66
2022-09-23T20:36:41.799Z,56.70
2022-09-23T20:39:10.286Z,56.79
2022-09-23T20:41:39.337Z,56.82
2022-09-23T20:44:16.768Z,57.07
2022-09-23T20:46:48.941Z,57.16
2022-09-23T20:49:17.878Z,57.47
2022-09-23T20:51:47.661Z,57.71
2022-09-23T20:54:16.890Z,57.83
2022-09-23T20:56:43.774Z,57.58
2022-09-23T20:59:14.988Z,57.91
2022-09-23T21:01:43.403Z,58.45
2022-09-23T21:04:10.859Z,58.88
2022-09-23T21:06:39.691Z,59.06
2022-09-23T21:09:08.332Z,59.30
2022-09-23T21:11:35.241Z,59.47
2022-09-23T21:14:02.664Z,59.48
2022-09-23T21:16:30.683Z,60.24
2022-09-23T21:18:58.856Z,60.50
2022-09-23T21:21:26.564Z,60.38
2022-09-23T21:23:53.649Z,61.19
2022-09-23T21:26:24.044Z,61.31
2022-09-23T21:28:57.755Z,61.43
2022-09-23T21:31:38.668Z,61.55
2022-09-23T21:34:09.015Z,61.52
2022-09-23T21:36:39.788Z,61.27
2022-09-23T21:39:09.349Z,61.93
2022-09-23T21:41:36.798Z,61.41
2022-09-23T21:44:04.833Z,61.54
2022-09-23T21:46:33.860Z,61.60
2022-09-23T21:49:03.570Z,61.74
2022-09-23T21:51:40.799Z,61.75
2022-09-23T21:54:16.011Z,61.67
2022-09-23T21:56:44.390Z,61.46
2022-09-23T21:59:11.629Z,61.28
2022-09-23T22:01:44.448Z,61.09
2022-09-23T22:04:18.968Z,61.44
2022-09-23T22:06:46.751Z,61.41
2022-09-23T22:09:18.498Z,61.39
2022-09-23T22:12:04.621Z,61.70
2022-09-23T22:14:31.902Z,61.89
2022-09-23T22:17:02.571Z,62.00
2022-09-23T22:19:42.990Z,62.06
2022-09-23T22:22:17.738Z,62.63
2022-09-23T22:24:47.954Z,62.48
2022-09-23T22:27:19.684Z,62.88
2022-09-23T22:30:05.878Z,63.25
2022-09-23T22:32:43.895Z,62.99
2022-09-23T22:35:18.712Z,62.55
2022-09-23T22:37:47.414Z,63.28
2022-09-23T22:40:15.717Z,63.43
2022-09-23T22:42:43.779Z,63.61
2022-09-23T22:45:12.705Z,63.20
2022-09-23T22:47:45.268Z,63.58
2022-09-23T22:50:14.660Z,63.33
2022-09-23T22:52:41.601Z,63.37
2022-09-23T22:55:09.406Z,63.53
2022-09-23T22:57:37.497Z,63.72
2022-09-23T23:00:07.335Z,63.53
2022-09-23T23:02:34.956Z,62.98
2022-09-23T23:05:02.243Z,63.53
2022-09-23T23:07:29.078Z,63.46
2022-09-23T23:09:56.260Z,63.43
2022-09-23T23:12:24.244Z,63.46
2022-09-23T23:14:51.086Z,63.60
2022-09-23T23:17:18.784Z,63.38
2022-09-23T23:19:46.069Z,63.57
2022-09-23T23:22:13.078Z,63.66
2022-09-23T23:24:40.263Z,63.94
2022-09-23T23:27:07.340Z,64.17
2022-09-23T23:29:34.290Z,63.78
2022-09-23T23:32:01.223Z,63.70
2022-09-23T23:34:28.562Z,63.81
2022-09-23T23:36:55.811Z,63.74
2022-09-23T23:39:25.216Z,64.05
2022-09-23T23:41:57.682Z,63.72
2022-09-23T23:44:26.542Z,63.26
2022-09-23T23:46:55.136Z,63.31
2022-09-23T23:49:22.985Z,63.48
2022-09-23T23:51:49.827Z,63.62
2022-09-23T23:54:16.905Z,64.26
2022-09-23T23:56:44.108Z,64.09
2022-09-23T23:59:11.353Z,64.23
